createdAt,value
2017-10-11T00:00:44.868Z,12.30
2017-10-11T00:03:11.251Z,12.20
2017-10-11T00:05:38.382Z,12.20
2017-10-11T00:08:05.556Z,12.20
2017-10-11T00:10:31.951Z,12.20
2017-10-11T00:12:59.075Z,12.20
2017-10-11T00:15:25.568Z,12.10
2017-10-11T00:17:51.944Z,12.20
2017-10-11T00:20:18.312Z,12.20
2017-10-11T00:22:45.461Z,12.20
2017-10-11T00:25:12.602Z,12.10
2017-10-11T00:27:39.741Z,12.10
2017-10-11T00:30:06.179Z,12.10
2017-10-11T00:32:32.563Z,12.10
2017-10-11T00:34:59.708Z,12.10
2017-10-11T00:37:26.131Z,12.10
2017-10-11T00:39:52.538Z,12.10
2017-10-11T00:42:19.003Z,12.10
2017-10-11T00:44:45.427Z,12.10
2017-10-11T00:47:11.819Z,12.10
2017-10-11T00:49:38.215Z,12.00
2017-10-11T00:52:04.633Z,12.00
2017-10-11T00:54:31.066Z,12.00
2017-10-11T00:56:57.487Z,11.90
2017-10-11T00:59:23.904Z,11.90
2017-10-11T01:01:50.343Z,11.80
2017-10-11T01:04:16.779Z,11.80
2017-10-11T01:06:43.972Z,11.90
2017-10-11T01:09:10.342Z,11.90
2017-10-11T01:11:36.763Z,11.90
2017-10-11T01:14:03.163Z,11.90
2017-10-11T01:16:29.559Z,11.80
2017-10-11T01:18:55.988Z,11.80
2017-10-11T01:21:22.415Z,11.70
2017-10-11T01:23:48.849Z,11.70
2017-10-11T01:26:16.006Z,11.60
2017-10-11T01:28:42.467Z,11.50
2017-10-11T01:31:08.910Z,11.60
2017-10-11T01:33:35.333Z,11.50
2017-10-11T01:36:01.776Z,11.50
2017-10-11T01:38:28.286Z,11.50
2017-10-11T01:40:55.450Z,11.50
2017-10-11T01:43:21.898Z,11.50
2017-10-11T01:45:48.378Z,11.40
2017-10-11T01:48:14.797Z,11.30
2017-10-11T01:50:41.280Z,11.20
2017-10-11T01:53:08.463Z,11.20
2017-10-11T01:55:34.870Z,11.20
2017-10-11T01:58:01.282Z,11.10
2017-10-11T02:00:28.799Z,11.10
2017-10-11T02:02:55.899Z,11.10
2017-10-11T02:05:22.331Z,11.10
2017-10-11T02:07:49.467Z,11.10
2017-10-11T02:10:15.827Z,11.10
2017-10-11T02:12:42.291Z,11.00
2017-10-11T02:15:08.660Z,11.10
2017-10-11T02:17:35.092Z,11.00
2017-10-11T02:20:01.494Z,11.00
2017-10-11T02:22:27.958Z,11.00
2017-10-11T02:24:54.374Z,11.00
2017-10-11T02:27:21.557Z,10.90
2017-10-11T02:29:47.923Z,10.90
2017-10-11T02:32:14.295Z,10.90
2017-10-11T02:34:40.741Z,10.90
2017-10-11T02:37:07.147Z,10.90
2017-10-11T02:39:34.283Z,11.00
2017-10-11T02:42:00.679Z,11.00
2017-10-11T02:44:27.100Z,10.90
2017-10-11T02:46:53.458Z,11.00
2017-10-11T02:49:19.895Z,10.90
2017-10-11T02:51:47.072Z,10.90
2017-10-11T02:54:13.479Z,10.90
2017-10-11T02:56:39.911Z,11.00
2017-10-11T02:59:06.347Z,11.00
2017-10-11T03:01:32.732Z,11.00
2017-10-11T03:03:59.148Z,11.10
2017-10-11T03:06:25.523Z,11.10
2017-10-11T03:08:52.698Z,11.20
2017-10-11T03:11:19.050Z,11.20
2017-10-11T03:13:45.401Z,11.20
2017-10-11T03:16:12.507Z,11.20
2017-10-11T03:18:39.667Z,11.20
2017-10-11T03:21:06.860Z,11.20
2017-10-11T03:23:33.268Z,11.20
2017-10-11T03:25:59.727Z,11.20
2017-10-11T03:28:27.911Z,11.20
2017-10-11T03:30:54.295Z,11.20
2017-10-11T03:33:20.722Z,11.20
2017-10-11T03:35:47.895Z,11.20
2017-10-11T03:38:14.405Z,11.20
2017-10-11T03:40:40.859Z,11.20
2017-10-11T03:43:07.242Z,11.20
2017-10-11T03:45:33.659Z,11.10
2017-10-11T03:48:00.132Z,11.20
2017-10-11T03:50:26.527Z,11.10
2017-10-11T03:52:52.883Z,11.10
2017-10-11T03:55:19.295Z,11.20
2017-10-11T03:57:46.433Z,11.20
2017-10-11T04:00:13.534Z,11.20
2017-10-11T04:02:39.935Z,11.20
2017-10-11T04:05:06.342Z,11.20
2017-10-11T04:07:32.743Z,11.20
2017-10-11T04:09:59.187Z,11.30
2017-10-11T04:12:25.583Z,11.30
2017-10-11T04:14:51.972Z,11.30
2017-10-11T04:17:18.417Z,11.30
2017-10-11T04:19:45.891Z,11.40
2017-10-11T04:22:12.295Z,11.40
2017-10-11T04:24:38.723Z,11.40
2017-10-11T04:27:05.127Z,11.40
2017-10-11T04:29:32.425Z,11.50
2017-10-11T04:31:58.843Z,11.50
2017-10-11T04:34:25.305Z,11.50
2017-10-11T04:36:51.723Z,11.50
2017-10-11T04:39:18.155Z,11.50
2017-10-11T04:41:44.559Z,11.60
2017-10-11T04:44:11.000Z,11.60
2017-10-11T04:46:37.460Z,11.50
2017-10-11T04:49:03.925Z,11.60
2017-10-11T04:51:30.296Z,11.60
2017-10-11T04:53:56.680Z,11.50
2017-10-11T04:56:23.899Z,11.50
2017-10-11T04:58:51.074Z,11.50
2017-10-11T05:01:17.471Z,11.50
2017-10-11T05:03:43.859Z,11.50
2017-10-11T05:06:10.232Z,11.50
2017-10-11T05:08:36.632Z,11.50
2017-10-11T05:11:03.057Z,11.40
2017-10-11T05:13:29.468Z,11.40
2017-10-11T05:15:55.871Z,11.40
2017-10-11T05:18:22.314Z,11.30
2017-10-11T05:20:48.695Z,11.30
2017-10-11T05:23:15.123Z,11.30
2017-10-11T05:25:42.263Z,11.20
2017-10-11T05:28:08.623Z,11.20
2017-10-11T05:30:35.015Z,11.20
2017-10-11T05:33:01.441Z,11.10
2017-10-11T05:35:27.841Z,11.20
2017-10-11T05:37:54.219Z,11.20
2017-10-11T05:40:20.628Z,11.20
2017-10-11T05:42:47.027Z,11.20
2017-10-11T05:45:13.410Z,11.20
2017-10-11T05:47:39.823Z,11.30
2017-10-11T05:50:06.244Z,11.40
2017-10-11T05:52:32.627Z,11.40
2017-10-11T05:54:58.995Z,11.30
2017-10-11T05:57:25.393Z,11.40
2017-10-11T05:59:51.843Z,11.40
2017-10-11T06:02:18.222Z,11.40
2017-10-11T06:04:44.594Z,11.30
2017-10-11T06:07:10.993Z,11.40
2017-10-11T06:09:37.372Z,11.40
2017-10-11T06:12:03.768Z,11.50
2017-10-11T06:14:30.218Z,11.50
2017-10-11T06:16:56.559Z,11.60
2017-10-11T06:19:22.936Z,11.60
2017-10-11T06:21:49.356Z,11.70
2017-10-11T06:24:15.743Z,11.80
2017-10-11T06:26:42.880Z,11.90
2017-10-11T06:29:09.339Z,11.90
2017-10-11T06:31:35.679Z,12.00
2017-10-11T06:34:02.094Z,12.00
2017-10-11T06:36:28.488Z,12.10
2017-10-11T06:38:54.907Z,12.10
2017-10-11T06:41:21.411Z,12.20
2017-10-11T06:43:47.792Z,12.20
2017-10-11T06:46:14.928Z,12.30
2017-10-11T06:48:41.323Z,12.30
2017-10-11T06:51:08.479Z,12.40
2017-10-11T06:53:35.615Z,12.50
2017-10-11T06:56:02.800Z,12.60
2017-10-11T06:58:29.216Z,12.60
2017-10-11T07:00:55.566Z,12.70
2017-10-11T07:03:22.715Z,12.90
2017-10-11T07:05:49.163Z,12.90
2017-10-11T07:08:15.564Z,12.90
2017-10-11T07:10:41.993Z,13.00
2017-10-11T07:13:09.413Z,13.00
2017-10-11T07:15:35.824Z,12.90
2017-10-11T07:18:02.315Z,13.00
2017-10-11T07:20:29.439Z,13.10
2017-10-11T07:22:55.835Z,13.10
2017-10-11T07:25:22.252Z,13.20
2017-10-11T07:27:48.691Z,13.40
2017-10-11T07:30:15.098Z,13.60
2017-10-11T07:32:41.495Z,13.60
2017-10-11T07:35:08.947Z,13.70
2017-10-11T07:37:35.396Z,13.70
2017-10-11T07:40:01.833Z,13.70
2017-10-11T07:42:28.277Z,13.70
2017-10-11T07:44:54.680Z,13.70
2017-10-11T07:47:21.091Z,13.60
2017-10-11T07:49:47.519Z,13.60
2017-10-11T07:52:13.911Z,13.70
2017-10-11T07:54:41.081Z,13.70
2017-10-11T07:57:07.528Z,13.70
2017-10-11T07:59:33.964Z,13.70
2017-10-11T08:02:00.347Z,13.70
2017-10-11T08:04:26.819Z,13.70
2017-10-11T08:06:53.959Z,13.60
2017-10-11T08:09:21.130Z,13.70
2017-10-11T08:11:47.565Z,13.70
2017-10-11T08:14:13.955Z,13.70
2017-10-11T08:16:40.369Z,13.80
2017-10-11T08:19:06.781Z,13.70
2017-10-11T08:21:33.159Z,13.70
2017-10-11T08:23:59.549Z,13.80
2017-10-11T08:26:25.919Z,13.80
2017-10-11T08:28:52.320Z,13.90
2017-10-11T08:31:19.459Z,13.90
2017-10-11T08:33:45.855Z,13.90
2017-10-11T08:36:12.230Z,13.90
2017-10-11T08:38:39.395Z,13.90
2017-10-11T08:41:06.539Z,13.90
2017-10-11T08:43:33.675Z,13.90
2017-10-11T08:46:00.072Z,13.90
2017-10-11T08:48:26.479Z,13.90
2017-10-11T08:50:53.643Z,14.10
2017-10-11T08:53:20.795Z,14.10
2017-10-11T08:55:47.206Z,14.10
2017-10-11T08:58:14.320Z,14.10
2017-10-11T09:00:40.716Z,14.10
2017-10-11T09:03:07.151Z,14.20
2017-10-11T09:05:33.567Z,14.10
2017-10-11T09:07:59.988Z,14.20
2017-10-11T09:10:26.349Z,14.20
2017-10-11T09:12:52.801Z,14.20
2017-10-11T09:15:19.236Z,14.20
2017-10-11T09:17:45.651Z,14.20
2017-10-11T09:20:12.003Z,14.20
2017-10-11T09:22:38.419Z,14.30
2017-10-11T09:25:04.868Z,14.40
2017-10-11T09:27:31.243Z,14.40
2017-10-11T09:29:57.695Z,14.40
2017-10-11T09:32:24.106Z,14.50
2017-10-11T09:34:50.483Z,14.50
2017-10-11T09:37:17.637Z,14.70
2017-10-11T09:39:44.040Z,14.70
2017-10-11T09:42:11.184Z,14.90
2017-10-11T09:44:37.591Z,14.90
2017-10-11T09:47:04.697Z,15.00
2017-10-11T09:49:31.087Z,15.00
2017-10-11T09:51:57.575Z,15.00
2017-10-11T09:54:23.972Z,15.10
2017-10-11T09:56:50.408Z,15.10
2017-10-11T09:59:16.855Z,15.00
2017-10-11T10:01:43.222Z,15.00
2017-10-11T10:04:10.311Z,15.10
2017-10-11T10:06:36.756Z,15.10
2017-10-11T10:09:03.241Z,15.20
2017-10-11T10:11:29.636Z,15.40
2017-10-11T10:13:56.047Z,15.50
2017-10-11T10:16:22.504Z,15.60
2017-10-11T10:18:48.919Z,15.70
2017-10-11T10:21:15.338Z,15.80
2017-10-11T10:23:41.734Z,15.80
2017-10-11T10:26:08.087Z,15.90
2017-10-11T10:28:34.511Z,16.10
2017-10-11T10:31:01.663Z,16.40
2017-10-11T10:33:28.199Z,16.30
2017-10-11T10:35:54.606Z,16.40
2017-10-11T10:38:21.003Z,16.40
2017-10-11T10:40:47.357Z,16.50
2017-10-11T10:43:13.732Z,16.50
2017-10-11T10:45:40.862Z,16.50
2017-10-11T10:48:07.303Z,16.50
2017-10-11T10:50:33.664Z,16.60
2017-10-11T10:53:00.385Z,16.50
2017-10-11T10:55:27.115Z,16.50
2017-10-11T10:57:54.533Z,16.50
2017-10-11T11:00:20.973Z,16.50
2017-10-11T11:02:47.331Z,16.60
2017-10-11T11:05:13.727Z,16.70
2017-10-11T11:07:40.103Z,16.70
2017-10-11T11:10:06.498Z,16.60
2017-10-11T11:12:32.917Z,16.70
2017-10-11T11:14:59.301Z,16.60
2017-10-11T11:17:25.676Z,16.60
2017-10-11T11:19:52.836Z,16.90
2017-10-11T11:22:19.199Z,16.90
2017-10-11T11:24:45.732Z,17.00
2017-10-11T11:27:12.134Z,17.10
2017-10-11T11:29:38.540Z,17.10
2017-10-11T11:32:05.698Z,17.00
2017-10-11T11:34:32.142Z,17.00
2017-10-11T11:36:58.568Z,17.00
2017-10-11T11:39:24.928Z,17.00
2017-10-11T11:41:51.370Z,16.90
2017-10-11T11:44:17.728Z,16.80
2017-10-11T11:46:44.066Z,16.50
2017-10-11T11:49:10.531Z,16.50
2017-10-11T11:51:36.943Z,16.50
2017-10-11T11:54:03.319Z,16.50
2017-10-11T11:56:29.771Z,16.40
2017-10-11T11:58:56.147Z,16.30
2017-10-11T12:01:23.303Z,16.20
2017-10-11T12:03:49.679Z,16.20
2017-10-11T12:06:16.108Z,16.30
2017-10-11T12:08:43.259Z,16.20
2017-10-11T12:11:09.655Z,16.20
2017-10-11T12:13:36.095Z,16.10
2017-10-11T12:16:03.195Z,16.00
2017-10-11T12:18:29.583Z,16.00
2017-10-11T12:20:56.195Z,16.00
2017-10-11T12:23:22.540Z,16.00
2017-10-11T12:25:48.959Z,16.00
2017-10-11T12:28:15.336Z,16.00
2017-10-11T12:30:41.723Z,15.90
2017-10-11T12:33:08.112Z,15.90
2017-10-11T12:35:34.484Z,15.90
2017-10-11T12:38:00.843Z,15.80
2017-10-11T12:40:27.283Z,15.90
2017-10-11T12:42:54.395Z,15.80
2017-10-11T12:45:20.767Z,15.80
2017-10-11T12:47:47.936Z,15.70
2017-10-11T12:50:14.299Z,15.70
2017-10-11T12:52:40.670Z,15.70
2017-10-11T12:55:07.047Z,15.70
2017-10-11T12:57:33.435Z,15.60
2017-10-11T12:59:59.812Z,15.60
2017-10-11T13:02:26.219Z,15.60
2017-10-11T13:04:52.668Z,15.60
2017-10-11T13:07:19.783Z,15.60
2017-10-11T13:09:46.950Z,15.60
2017-10-11T13:12:14.087Z,15.50
2017-10-11T13:14:41.178Z,15.50
2017-10-11T13:17:07.597Z,15.40
2017-10-11T13:19:33.994Z,15.50
2017-10-11T13:22:00.363Z,15.40
2017-10-11T13:24:26.810Z,15.40
2017-10-11T13:26:53.255Z,15.40
2017-10-11T13:29:19.649Z,15.40
2017-10-11T13:31:46.039Z,15.40
2017-10-11T13:34:12.424Z,15.40
2017-10-11T13:36:38.819Z,15.40
2017-10-11T13:39:05.215Z,15.40
2017-10-11T13:41:31.589Z,15.40
2017-10-11T13:43:58.029Z,15.40
2017-10-11T13:46:24.434Z,15.40
2017-10-11T13:48:50.787Z,15.50
2017-10-11T13:51:17.179Z,15.50
2017-10-11T13:53:43.551Z,15.50
2017-10-11T13:56:09.964Z,15.40
2017-10-11T13:58:36.343Z,15.40
2017-10-11T14:01:02.731Z,15.40
2017-10-11T14:03:29.860Z,15.40
2017-10-11T14:05:58.087Z,15.40
2017-10-11T14:08:24.471Z,15.40
2017-10-11T14:10:50.851Z,15.40
2017-10-11T14:13:17.316Z,15.40
2017-10-11T14:15:43.707Z,15.40
2017-10-11T14:18:10.044Z,15.40
2017-10-11T14:20:37.236Z,15.30
2017-10-11T14:23:04.359Z,15.40
2017-10-11T14:25:30.819Z,15.40
2017-10-11T14:27:57.238Z,15.30
2017-10-11T14:30:23.694Z,15.40
2017-10-11T14:32:50.089Z,15.40
2017-10-11T14:35:16.511Z,15.40
2017-10-11T14:37:43.644Z,15.30
2017-10-11T14:40:10.038Z,15.30
2017-10-11T14:42:36.480Z,15.30
2017-10-11T14:45:02.831Z,15.20
2017-10-11T14:47:29.239Z,15.20
2017-10-11T14:49:55.622Z,15.20
2017-10-11T14:52:21.987Z,15.20
2017-10-11T14:54:48.403Z,15.20
2017-10-11T14:57:14.767Z,15.20
2017-10-11T14:59:41.115Z,15.20
2017-10-11T15:02:07.531Z,15.20
2017-10-11T15:04:34.008Z,15.20
2017-10-11T15:07:00.383Z,15.30
2017-10-11T15:09:26.775Z,15.30
2017-10-11T15:11:53.151Z,15.30
2017-10-11T15:14:19.515Z,15.30
2017-10-11T15:16:45.906Z,15.30
2017-10-11T15:19:12.267Z,15.30
2017-10-11T15:21:39.403Z,15.30
2017-10-11T15:24:05.798Z,15.20
2017-10-11T15:26:32.184Z,15.30
2017-10-11T15:28:58.551Z,15.30
2017-10-11T15:31:25.018Z,15.30
2017-10-11T15:33:51.422Z,15.30
2017-10-11T15:36:17.748Z,15.30
2017-10-11T15:38:44.183Z,15.30
2017-10-11T15:41:10.557Z,15.30
2017-10-11T15:43:37.015Z,15.30
2017-10-11T15:46:03.445Z,15.20
2017-10-11T15:48:29.779Z,15.30
2017-10-11T15:50:56.198Z,15.30
2017-10-11T15:53:22.605Z,15.20
2017-10-11T15:55:49.728Z,15.20
2017-10-11T15:58:16.115Z,15.20
2017-10-11T16:00:42.612Z,15.20
2017-10-11T16:03:09.014Z,15.10
2017-10-11T16:05:35.479Z,15.10
2017-10-11T16:08:01.879Z,15.10
2017-10-11T16:10:28.306Z,15.10
2017-10-11T16:12:54.676Z,15.10
2017-10-11T16:15:21.797Z,15.10
2017-10-11T16:17:48.206Z,15.10
2017-10-11T16:20:14.600Z,15.00
2017-10-11T16:22:40.999Z,15.00
2017-10-11T16:25:07.407Z,15.00
2017-10-11T16:27:33.816Z,15.00
2017-10-11T16:30:00.248Z,15.00
2017-10-11T16:32:26.679Z,15.00
2017-10-11T16:34:53.127Z,14.90
2017-10-11T16:37:20.323Z,14.90
2017-10-11T16:39:46.702Z,14.90
2017-10-11T16:42:13.108Z,14.90
2017-10-11T16:44:39.516Z,14.90
2017-10-11T16:47:06.640Z,14.80
2017-10-11T16:49:33.178Z,14.80
2017-10-11T16:52:00.598Z,14.80
2017-10-11T16:54:27.023Z,14.80
2017-10-11T16:56:54.170Z,14.70
2017-10-11T16:59:20.868Z,14.70
2017-10-11T17:01:47.552Z,14.60
2017-10-11T17:04:13.958Z,14.60
2017-10-11T17:06:40.388Z,14.60
2017-10-11T17:09:07.174Z,14.60
2017-10-11T17:11:34.437Z,14.60
2017-10-11T17:14:01.385Z,14.60
2017-10-11T17:16:28.539Z,14.60
2017-10-11T17:18:55.635Z,14.50
2017-10-11T17:21:22.612Z,14.50
2017-10-11T17:23:50.255Z,14.50
2017-10-11T17:26:18.009Z,14.50
2017-10-11T17:28:44.971Z,14.50
2017-10-11T17:31:12.288Z,14.50
2017-10-11T17:33:39.984Z,14.50
2017-10-11T17:36:07.461Z,14.40
2017-10-11T17:38:35.363Z,14.40
2017-10-11T17:41:03.419Z,14.30
2017-10-11T17:43:31.178Z,14.30
2017-10-11T17:45:59.816Z,14.30
2017-10-11T17:48:27.586Z,14.30
2017-10-11T17:50:55.469Z,14.30
2017-10-11T17:53:23.251Z,14.20
2017-10-11T17:55:51.276Z,14.30
2017-10-11T17:58:19.089Z,14.20
2017-10-11T18:00:47.202Z,14.20
2017-10-11T18:03:15.098Z,14.20
2017-10-11T18:05:43.023Z,14.10
2017-10-11T18:08:11.077Z,14.10
2017-10-11T18:10:39.025Z,14.10
2017-10-11T18:13:06.927Z,14.00
2017-10-11T18:15:35.144Z,14.00
2017-10-11T18:18:03.070Z,13.90
2017-10-11T18:20:31.002Z,14.00
2017-10-11T18:23:00.211Z,13.90
2017-10-11T18:25:28.091Z,13.90
2017-10-11T18:27:56.088Z,13.80
2017-10-11T18:30:24.047Z,13.70
2017-10-11T18:32:51.952Z,13.70
2017-10-11T18:35:19.958Z,13.60
2017-10-11T18:37:47.993Z,13.60
2017-10-11T18:40:15.871Z,13.70
2017-10-11T18:42:46.010Z,13.60
2017-10-11T18:45:15.554Z,13.60
2017-10-11T18:47:44.534Z,13.60
2017-10-11T18:50:12.787Z,13.60
2017-10-11T18:52:41.099Z,13.60
2017-10-11T18:55:09.198Z,13.60
2017-10-11T18:57:38.084Z,13.60
2017-10-11T19:00:07.771Z,13.60
2017-10-11T19:02:36.742Z,13.50
2017-10-11T19:05:05.822Z,13.50
2017-10-11T19:07:35.115Z,13.40
2017-10-11T19:10:03.061Z,13.40
2017-10-11T19:12:31.282Z,13.40
2017-10-11T19:14:59.438Z,13.30
2017-10-11T19:17:27.346Z,13.30
2017-10-11T19:19:55.382Z,13.20
2017-10-11T19:22:23.443Z,13.10
2017-10-11T19:24:52.414Z,13.00
2017-10-11T19:27:20.346Z,13.00
2017-10-11T19:29:48.428Z,13.10
2017-10-11T19:32:16.869Z,13.10
2017-10-11T19:34:44.882Z,13.00
2017-10-11T19:37:13.010Z,12.90
2017-10-11T19:39:40.979Z,12.80
2017-10-11T19:42:08.919Z,12.70
2017-10-11T19:44:38.209Z,12.60
2017-10-11T19:47:06.105Z,12.60
2017-10-11T19:49:35.532Z,12.50
2017-10-11T19:52:04.601Z,12.40
2017-10-11T19:54:32.762Z,12.40
2017-10-11T19:57:00.837Z,12.50
2017-10-11T19:59:29.052Z,12.40
2017-10-11T20:01:57.089Z,12.40
2017-10-11T20:04:25.231Z,12.40
2017-10-11T20:06:53.342Z,12.50
2017-10-11T20:09:21.209Z,12.50
2017-10-11T20:11:49.330Z,12.50
2017-10-11T20:14:18.007Z,12.50
2017-10-11T20:16:47.128Z,12.60
2017-10-11T20:19:15.292Z,12.60
2017-10-11T20:21:44.303Z,12.60
2017-10-11T20:24:12.406Z,12.60
2017-10-11T20:26:41.204Z,12.60
2017-10-11T20:29:09.406Z,12.60
2017-10-11T20:31:37.273Z,12.60
2017-10-11T20:34:05.305Z,12.60
2017-10-11T20:36:33.316Z,12.50
2017-10-11T20:39:01.337Z,12.50
2017-10-11T20:41:30.152Z,12.40
2017-10-11T20:43:58.279Z,12.40
2017-10-11T20:46:26.334Z,12.40
2017-10-11T20:48:54.405Z,12.40
2017-10-11T20:51:22.517Z,12.30
2017-10-11T20:53:50.513Z,12.30
2017-10-11T20:56:18.472Z,12.20
2017-10-11T20:58:46.652Z,12.20
2017-10-11T21:01:14.496Z,12.10
2017-10-11T21:03:42.654Z,12.10
2017-10-11T21:06:10.576Z,12.20
2017-10-11T21:08:38.691Z,12.20
2017-10-11T21:11:06.639Z,12.20
2017-10-11T21:13:34.634Z,12.20
2017-10-11T21:16:02.622Z,12.20
2017-10-11T21:18:30.502Z,12.20
2017-10-11T21:20:58.414Z,12.20
2017-10-11T21:23:26.332Z,12.20
2017-10-11T21:25:54.250Z,12.20
2017-10-11T21:28:22.145Z,12.20
2017-10-11T21:30:50.062Z,12.30
2017-10-11T21:33:17.937Z,12.30
2017-10-11T21:35:46.480Z,12.30
2017-10-11T21:38:15.225Z,12.30
2017-10-11T21:40:43.067Z,12.40
2017-10-11T21:43:10.301Z,12.40
2017-10-11T21:45:36.934Z,12.40
2017-10-11T21:48:03.437Z,12.30
2017-10-11T21:50:29.997Z,12.30
2017-10-11T21:52:56.510Z,12.40
2017-10-11T21:55:22.895Z,12.40
2017-10-11T21:57:49.330Z,12.40
2017-10-11T22:00:15.965Z,12.40
2017-10-11T22:02:43.139Z,12.40
2017-10-11T22:05:10.291Z,12.30
2017-10-11T22:07:37.477Z,12.20
2017-10-11T22:10:03.861Z,12.20
2017-10-11T22:12:30.254Z,12.10
2017-10-11T22:14:56.646Z,12.20
2017-10-11T22:17:24.018Z,12.10
2017-10-11T22:19:51.204Z,11.90
2017-10-11T22:22:17.608Z,11.90
2017-10-11T22:24:44.034Z,11.80
2017-10-11T22:27:10.423Z,11.80
2017-10-11T22:29:37.555Z,11.60
2017-10-11T22:32:04.731Z,11.60
2017-10-11T22:34:31.123Z,11.50
2017-10-11T22:36:57.534Z,11.50
2017-10-11T22:39:23.939Z,11.40
2017-10-11T22:41:51.051Z,11.40
2017-10-11T22:44:17.479Z,11.40
2017-10-11T22:46:44.619Z,11.30
2017-10-11T22:49:11.050Z,11.30
2017-10-11T22:51:37.438Z,11.30
2017-10-11T22:54:03.855Z,11.20
2017-10-11T22:56:30.308Z,11.20
2017-10-11T22:58:56.699Z,11.10
2017-10-11T23:01:23.134Z,11.10
2017-10-11T23:03:49.510Z,10.90
2017-10-11T23:06:15.904Z,11.00
2017-10-11T23:08:42.310Z,11.00
2017-10-11T23:11:09.465Z,10.90
2017-10-11T23:13:35.836Z,10.80
2017-10-11T23:16:02.994Z,10.80
2017-10-11T23:18:30.123Z,10.80
2017-10-11T23:20:57.255Z,10.90
2017-10-11T23:23:23.652Z,10.80
2017-10-11T23:25:50.025Z,10.80
2017-10-11T23:28:16.407Z,10.80
2017-10-11T23:30:42.924Z,10.80
2017-10-11T23:33:10.058Z,10.60
2017-10-11T23:35:36.460Z,10.60
2017-10-11T23:38:03.831Z,10.60
2017-10-11T23:40:30.267Z,10.50
2017-10-11T23:42:56.678Z,10.50
2017-10-11T23:45:23.019Z,10.50
2017-10-11T23:47:50.175Z,10.50
2017-10-11T23:50:17.338Z,10.30
2017-10-11T23:52:43.808Z,10.30
2017-10-11T23:55:10.199Z,10.30
2017-10-11T23:57:36.590Z,10.30
